Time;durP1;ratioP1;P1;durP2;ratioP2;P2;SDS_P1;SDS_P2;PMS_P1;PMS_P2;Temp;Humidity;BMP_temperature;BMP_pressure;BME280_temperature;BME280_humidity;BME280_pressure;Samples;Min_cycle;Max_cycle;Signal;HPM_P1;HPM_P2
2023/06/23 00:01:05;;;;;;;14.98;12.52;;;16.80;99.90;;;;;;5066213;28;20094;-87
2023/06/23 00:03:30;;;;;;;18.60;13.23;;;16.60;99.90;;;;;;5067069;28;20667;-88
2023/06/23 00:05:57;;;;;;;20.23;13.15;;;17.00;99.90;;;;;;5050366;28;20045;-87
2023/06/23 00:08:22;;;;;;;16.42;12.88;;;16.70;99.90;;;;;;5050397;28;20048;-88
2023/06/23 00:10:48;;;;;;;17.52;12.00;;;16.90;99.90;;;;;;5053120;28;20082;-87
2023/06/23 00:13:15;;;;;;;15.60;12.52;;;16.60;99.90;;;;;;5054085;28;20045;-89
2023/06/23 00:15:41;;;;;;;16.63;12.57;;;16.70;99.90;;;;;;5071899;28;20106;-89
2023/06/23 00:18:06;;;;;;;14.65;12.02;;;16.60;99.90;;;;;;5055480;28;20545;-88
2023/06/23 00:20:32;;;;;;;17.73;12.57;;;16.70;99.90;;;;;;5055410;28;20135;-90
2023/06/23 00:22:58;;;;;;;17.10;12.35;;;16.70;99.90;;;;;;5055017;28;20051;-90
2023/06/23 00:25:23;;;;;;;18.58;12.65;;;16.60;99.90;;;;;;5072628;28;20033;-88
2023/06/23 00:27:49;;;;;;;17.88;13.15;;;16.60;99.90;;;;;;5072530;28;20142;-88
2023/06/23 00:30:15;;;;;;;17.85;13.02;;;16.80;99.90;;;;;;5074173;28;20036;-90
2023/06/23 00:32:41;;;;;;;17.70;12.95;;;16.70;99.90;;;;;;5056203;28;20041;-90
2023/06/23 00:35:12;;;;;;;18.50;13.32;;;16.70;99.90;;;;;;5055035;28;20048;-91
2023/06/23 00:37:37;;;;;;;20.67;13.77;;;16.60;99.90;;;;;;5057085;28;20044;-91
2023/06/23 00:40:05;;;;;;;18.58;12.98;;;16.70;99.90;;;;;;5041438;28;20095;-91
2023/06/23 00:42:46;;;;;;;16.73;14.05;;;16.70;99.90;;;;;;5047209;28;20048;-92
2023/06/23 00:45:13;;;;;;;15.05;12.68;;;16.70;99.90;;;;;;5056511;28;20040;-92
2023/06/23 00:47:44;;;;;;;20.70;13.25;;;16.60;99.90;;;;;;5056851;28;20048;-88
2023/06/23 00:50:18;;;;;;;16.58;12.35;;;16.70;99.90;;;;;;5056684;28;20040;-89
2023/06/23 00:52:49;;;;;;;18.75;12.77;;;16.60;99.90;;;;;;5057334;28;20044;-90
2023/06/23 00:55:20;;;;;;;18.08;13.75;;;16.70;99.90;;;;;;5056017;28;20044;-89
2023/06/23 00:57:50;;;;;;;17.70;13.00;;;17.00;99.90;;;;;;5054177;28;20801;-90
2023/06/23 01:00:18;;;;;;;18.00;13.40;;;16.60;99.90;;;;;;5037172;28;20076;-91
2023/06/23 01:02:46;;;;;;;18.90;12.63;;;16.60;99.90;;;;;;5070323;28;20434;-91
2023/06/23 01:05:17;;;;;;;15.27;13.02;;;16.50;99.90;;;;;;5037196;28;20055;-91
2023/06/23 01:07:49;;;;;;;17.17;13.25;;;16.50;99.90;;;;;;5043159;28;20044;-90
2023/06/23 01:10:32;;;;;;;16.30;12.98;;;16.90;99.90;;;;;;5057421;28;20055;-90
2023/06/23 01:13:13;;;;;;;16.60;13.63;;;16.50;99.90;;;;;;5056630;28;20052;-90
2023/06/23 01:15:51;;;;;;;19.88;14.02;;;16.50;99.90;;;;;;5056387;28;20504;-89
2023/06/23 01:18:41;;;;;;;20.58;13.65;;;16.50;99.90;;;;;;5056172;28;20501;-89
2023/06/23 01:21:12;;;;;;;18.15;12.88;;;16.50;99.90;;;;;;5055998;28;20060;-91
2023/06/23 01:24:23;;;;;;;19.98;12.70;;;16.40;99.90;;;;;;5071960;28;20092;-90
2023/06/23 01:27:11;;;;;;;18.52;13.40;;;16.50;99.90;;;;;;5049146;28;21951;-91
2023/06/23 01:29:42;;;;;;;16.67;13.30;;;16.50;99.90;;;;;;5063406;28;20407;-91
2023/06/23 01:32:16;;;;;;;16.13;12.70;;;16.50;99.90;;;;;;5056043;28;20041;-91
2023/06/23 01:34:45;;;;;;;17.42;12.93;;;16.50;99.90;;;;;;5054999;28;20287;-88
2023/06/23 01:37:18;;;;;;;14.90;13.25;;;16.40;99.90;;;;;;5055007;28;20187;-90
2023/06/23 01:39:50;;;;;;;15.57;12.45;;;16.50;99.90;;;;;;5070911;28;20508;-89
2023/06/23 01:42:18;;;;;;;16.55;13.38;;;16.40;99.90;;;;;;5054365;28;20066;-89
2023/06/23 01:44:48;;;;;;;15.95;13.48;;;16.60;99.90;;;;;;5073980;28;20131;-89
2023/06/23 01:47:27;;;;;;;15.88;13.30;;;16.60;99.90;;;;;;5053665;28;20365;-89
2023/06/23 01:49:54;;;;;;;17.40;13.55;;;16.40;99.90;;;;;;5052716;28;20056;-89
2023/06/23 01:52:21;;;;;;;17.00;13.18;;;16.40;99.90;;;;;;5050472;28;20049;-89
2023/06/23 01:54:49;;;;;;;17.42;12.35;;;16.60;99.90;;;;;;5050343;28;20211;-88
2023/06/23 01:57:18;;;;;;;20.23;13.38;;;16.40;99.90;;;;;;5041978;28;20048;-89
2023/06/23 01:59:45;;;;;;;18.02;12.60;;;16.50;99.90;;;;;;5053624;28;20114;-89
2023/06/23 02:02:12;;;;;;;14.95;12.00;;;16.20;99.90;;;;;;5053828;28;20475;-88
2023/06/23 02:04:40;;;;;;;16.63;12.02;;;16.30;99.90;;;;;;5070283;28;20048;-89
2023/06/23 02:07:07;;;;;;;15.70;12.27;;;16.30;99.90;;;;;;5053004;28;20127;-89
2023/06/23 02:09:35;;;;;;;13.88;11.88;;;16.30;99.90;;;;;;5053387;28;20036;-89
2023/06/23 02:12:06;;;;;;;14.48;11.45;;;16.30;99.90;;;;;;5053367;28;20498;-89
2023/06/23 02:14:34;;;;;;;14.63;11.52;;;16.20;99.90;;;;;;5054300;28;20046;-89
2023/06/23 02:17:03;;;;;;;15.05;11.43;;;16.30;99.90;;;;;;5053620;28;20113;-89
2023/06/23 02:19:31;;;;;;;13.57;11.05;;;16.20;99.90;;;;;;5087592;28;20041;-89
2023/06/23 02:21:57;;;;;;;13.82;11.27;;;16.30;99.90;;;;;;5070485;28;20571;-88
2023/06/23 02:24:26;;;;;;;16.48;11.48;;;16.20;99.90;;;;;;5054177;28;20048;-90
2023/06/23 02:26:53;;;;;;;15.60;11.88;;;16.40;99.90;;;;;;5055000;28;20045;-90
2023/06/23 02:29:23;;;;;;;13.15;11.45;;;16.20;99.90;;;;;;5055087;28;20044;-90
2023/06/23 02:31:51;;;;;;;14.70;11.70;;;16.20;99.90;;;;;;5055927;28;20044;-91
2023/06/23 02:34:17;;;;;;;13.43;10.90;;;16.20;99.90;;;;;;5070807;28;20900;-88
2023/06/23 02:36:48;;;;;;;14.10;11.07;;;16.40;99.90;;;;;;5053905;28;20154;-89
2023/06/23 02:39:18;;;;;;;14.68;10.55;;;16.10;99.90;;;;;;5071611;28;20052;-89
2023/06/23 02:41:50;;;;;;;13.05;11.40;;;16.30;99.90;;;;;;5056087;28;20045;-89
2023/06/23 02:44:20;;;;;;;15.10;11.32;;;16.10;99.90;;;;;;5055290;28;20044;-91
2023/06/23 02:46:52;;;;;;;14.77;11.20;;;16.10;99.90;;;;;;5054381;28;20079;-88
2023/06/23 02:49:21;;;;;;;;;;;16.20;99.90;;;;;;5055235;28;20217;-90
2023/06/23 02:51:55;;;;;;;14.68;11.63;;;16.30;99.90;;;;;;5055727;28;19924;-90
2023/06/23 02:54:25;;;;;;;15.68;12.68;;;16.10;99.90;;;;;;5055444;28;20040;-89
2023/06/23 02:56:54;;;;;;;19.08;13.10;;;16.10;99.90;;;;;;5055698;28;20094;-91
2023/06/23 02:59:22;;;;;;;15.15;12.45;;;16.00;99.90;;;;;;5055625;28;20072;-90
2023/06/23 03:01:53;;;;;;;18.38;13.63;;;16.00;99.90;;;;;;5055686;28;20043;-90
2023/06/23 03:04:23;;;;;;;18.10;13.77;;;16.20;99.90;;;;;;5055378;28;20036;-90
2023/06/23 03:06:50;;;;;;;19.20;13.98;;;16.00;99.90;;;;;;5054888;28;20086;-90
2023/06/23 03:09:15;;;;;;;16.60;13.77;;;16.10;99.90;;;;;;5056035;28;20048;-90
2023/06/23 03:11:41;;;;;;;16.48;13.55;;;16.00;99.90;;;;;;5071991;28;20048;-89
2023/06/23 03:14:07;;;;;;;18.40;15.15;;;16.20;99.90;;;;;;5055474;28;20033;-90
2023/06/23 03:16:44;;;;;;;18.23;14.15;;;16.20;99.90;;;;;;5057214;28;20757;-91
2023/06/23 03:19:31;;;;;;;20.65;15.25;;;16.00;99.90;;;;;;5055107;28;20048;-90
2023/06/23 03:22:22;;;;;;;20.73;15.38;;;16.00;99.90;;;;;;5056172;28;20090;-90
2023/06/23 03:25:02;;;;;;;19.17;15.77;;;16.00;99.90;;;;;;5055986;28;20045;-91
2023/06/23 03:27:36;;;;;;;17.38;15.52;;;16.00;99.90;;;;;;5055264;28;20078;-91
2023/06/23 03:30:22;;;;;;;18.38;14.80;;;16.20;99.90;;;;;;5054889;28;20055;-92
2023/06/23 03:32:51;;;;;;;22.00;16.25;;;16.00;99.90;;;;;;5051351;28;20070;-91
2023/06/23 03:35:26;;;;;;;22.95;16.15;;;16.00;99.90;;;;;;5035423;28;20439;-90
2023/06/23 03:37:59;;;;;;;20.33;15.70;;;16.00;99.90;;;;;;5033759;28;20048;-90
2023/06/23 03:40:29;;;;;;;21.35;15.63;;;16.20;99.90;;;;;;5049627;28;20051;-90
2023/06/23 03:43:08;;;;;;;21.40;14.63;;;16.30;99.90;;;;;;5053088;28;20079;-91
2023/06/23 03:45:35;;;;;;;18.27;14.23;;;16.00;99.90;;;;;;5035723;28;20048;-91
2023/06/23 03:48:08;;;;;;;19.55;14.32;;;16.00;99.90;;;;;;5053436;28;20056;-91
2023/06/23 03:50:36;;;;;;;19.23;14.18;;;16.00;99.90;;;;;;5053823;28;20059;-91
2023/06/23 03:53:03;;;;;;;18.85;13.77;;;16.10;99.90;;;;;;5036120;28;20045;-90
2023/06/23 03:55:32;;;;;;;20.33;14.07;;;16.10;99.90;;;;;;5054493;28;20040;-90
2023/06/23 03:58:03;;;;;;;20.13;14.38;;;16.00;99.90;;;;;;5055418;28;20123;-91
2023/06/23 04:00:40;;;;;;;17.55;13.85;;;16.00;99.90;;;;;;5072811;28;20332;-90
2023/06/23 04:03:11;;;;;;;16.60;13.45;;;16.10;99.90;;;;;;5073594;28;20045;-90
2023/06/23 04:05:39;;;;;;;16.88;13.43;;;16.10;99.90;;;;;;5055957;28;20514;-90
2023/06/23 04:08:07;;;;;;;15.25;12.50;;;16.00;99.90;;;;;;5055020;28;20121;-88
2023/06/23 04:10:35;;;;;;;17.15;11.95;;;16.00;99.90;;;;;;5055234;28;20062;-89
2023/06/23 04:13:03;;;;;;;14.98;12.48;;;16.00;99.90;;;;;;5055180;28;20043;-89
2023/06/23 04:15:30;;;;;;;14.80;12.68;;;16.00;99.90;;;;;;5070970;28;20044;-90
2023/06/23 04:17:57;;;;;;;18.50;13.35;;;15.90;99.90;;;;;;5036116;28;20489;-89
2023/06/23 04:20:24;;;;;;;16.23;13.20;;;16.00;99.90;;;;;;5069614;28;20052;-89
2023/06/23 04:22:51;;;;;;;18.25;13.57;;;16.10;99.90;;;;;;5071483;28;20105;-89
2023/06/23 04:25:20;;;;;;;16.17;12.63;;;16.20;99.90;;;;;;5071151;28;20059;-90
2023/06/23 04:27:50;;;;;;;16.80;12.80;;;16.20;99.90;;;;;;5069216;28;20137;-88
2023/06/23 04:30:17;;;;;;;19.88;13.55;;;16.10;99.90;;;;;;5070669;28;20044;-88
2023/06/23 04:32:44;;;;;;;13.30;11.80;;;15.90;99.90;;;;;;5054668;28;20055;-87
2023/06/23 04:35:10;;;;;;;16.67;12.07;;;16.00;99.90;;;;;;5069504;28;20074;-88
2023/06/23 04:37:46;;;;;;;17.27;13.00;;;16.00;99.90;;;;;;5069335;28;20076;-89
2023/06/23 04:40:42;;;;;;;15.85;12.30;;;16.00;99.90;;;;;;5069414;28;20563;-88
2023/06/23 04:43:32;;;;;;;16.00;11.98;;;16.10;99.90;;;;;;5073183;28;20102;-87
2023/06/23 04:46:06;;;;;;;14.32;11.82;;;16.10;99.90;;;;;;5052948;28;20044;-88
2023/06/23 04:48:40;;;;;;;14.43;11.70;;;16.20;99.90;;;;;;5052423;28;20099;-88
2023/06/23 04:51:08;;;;;;;14.48;12.05;;;16.50;99.90;;;;;;5051406;28;20056;-86
2023/06/23 04:53:47;;;;;;;15.05;11.00;;;16.40;99.90;;;;;;5069671;28;20098;-87
2023/06/23 04:56:16;;;;;;;14.00;10.77;;;16.20;99.90;;;;;;5050570;28;20055;-88
2023/06/23 04:58:45;;;;;;;15.30;10.73;;;16.30;99.90;;;;;;5069730;28;20171;-88
2023/06/23 05:01:12;;;;;;;15.80;10.90;;;16.20;99.90;;;;;;5051828;28;20491;-88
2023/06/23 05:03:40;;;;;;;14.05;10.68;;;16.30;99.90;;;;;;5069034;28;20117;-87
2023/06/23 05:06:07;;;;;;;12.10;10.25;;;16.30;99.90;;;;;;5068688;28;20052;-88
2023/06/23 05:08:34;;;;;;;16.48;9.93;;;16.40;99.90;;;;;;5068361;28;20088;-89
2023/06/23 05:11:05;;;;;;;16.00;10.43;;;16.60;99.90;;;;;;5068544;28;20049;-89
2023/06/23 05:13:33;;;;;;;11.60;9.85;;;16.30;99.90;;;;;;5051940;28;20052;-88
2023/06/23 05:16:02;;;;;;;15.70;10.35;;;16.30;99.90;;;;;;5052546;28;20044;-89
2023/06/23 05:18:29;;;;;;;14.60;11.00;;;16.30;99.90;;;;;;5050383;28;20262;-87
2023/06/23 05:20:59;;;;;;;18.17;10.90;;;16.30;99.90;;;;;;5050322;28;20040;-89
2023/06/23 05:23:27;;;;;;;13.77;10.93;;;16.30;99.90;;;;;;5052703;28;20048;-88
2023/06/23 05:25:57;;;;;;;12.30;10.45;;;16.30;99.90;;;;;;5050695;28;20121;-89
2023/06/23 05:28:26;;;;;;;12.48;10.52;;;16.30;99.90;;;;;;5063113;28;20044;-88
2023/06/23 05:30:55;;;;;;;12.98;10.65;;;16.40;99.90;;;;;;5032372;28;20141;-88
2023/06/23 05:33:23;;;;;;;11.73;10.45;;;16.40;99.90;;;;;;5051959;28;20051;-89
2023/06/23 05:35:51;;;;;;;12.00;10.80;;;16.60;99.90;;;;;;5052915;28;20452;-89
2023/06/23 05:38:19;;;;;;;11.77;10.55;;;16.50;99.90;;;;;;5070310;28;20060;-90
2023/06/23 05:40:45;;;;;;;11.57;10.30;;;16.50;99.90;;;;;;5056165;28;20040;-88
2023/06/23 05:43:11;;;;;;;13.75;10.82;;;16.60;99.90;;;;;;5068792;28;20838;-89
2023/06/23 05:45:37;;;;;;;12.65;10.52;;;16.60;99.90;;;;;;5069292;28;20102;-89
2023/06/23 05:48:27;;;;;;;14.07;10.85;;;16.50;99.90;;;;;;5010135;28;1119676;-88
2023/06/23 05:50:55;;;;;;;12.50;11.15;;;16.60;99.90;;;;;;5069879;28;20048;-87
2023/06/23 05:53:24;;;;;;;13.38;10.45;;;16.60;99.90;;;;;;5050375;28;20037;-89
2023/06/23 05:56:01;;;;;;;13.50;11.10;;;16.70;99.90;;;;;;5050334;28;20420;-89
2023/06/23 05:58:36;;;;;;;16.23;10.93;;;16.60;99.90;;;;;;5033813;28;20183;-87
2023/06/23 06:01:08;;;;;;;13.88;11.68;;;16.60;99.90;;;;;;5033734;28;20060;-89
2023/06/23 06:03:37;;;;;;;15.10;10.40;;;16.80;99.90;;;;;;5039486;28;20048;-86
2023/06/23 06:06:06;;;;;;;12.50;11.15;;;17.70;99.90;;;;;;5069431;28;20050;-85
2023/06/23 06:08:35;;;;;;;14.52;10.93;;;18.60;99.90;;;;;;5067670;28;20074;-87
2023/06/23 06:11:02;;;;;;;14.93;11.00;;;19.30;99.90;;;;;;5050104;28;20055;-88
2023/06/23 06:13:32;;;;;;;12.90;10.20;;;19.30;99.90;;;;;;5048522;28;20408;-87
2023/06/23 06:15:59;;;;;;;12.07;10.30;;;19.10;99.90;;;;;;5067170;28;20048;-87
2023/06/23 06:18:25;;;;;;;11.98;10.63;;;19.30;99.90;;;;;;5066871;28;20053;-87
2023/06/23 06:20:53;;;;;;;14.60;11.02;;;19.00;99.90;;;;;;5067980;28;20848;-87
2023/06/23 06:23:20;;;;;;;11.38;9.73;;;19.10;99.90;;;;;;5068493;28;20086;-88
2023/06/23 06:25:49;;;;;;;10.93;9.52;;;19.70;99.90;;;;;;5067925;28;20036;-87
2023/06/23 06:28:16;;;;;;;10.77;9.57;;;20.50;99.90;;;;;;5052545;28;20043;-91
2023/06/23 06:30:43;;;;;;;9.82;8.63;;;20.90;99.90;;;;;;5069077;28;20075;-90
2023/06/23 06:33:13;;;;;;;11.23;9.23;;;21.10;99.90;;;;;;5068965;28;20044;-89
2023/06/23 06:35:42;;;;;;;9.27;8.30;;;21.40;99.90;;;;;;5066132;28;20124;-90
2023/06/23 06:38:10;;;;;;;9.85;8.85;;;21.40;99.90;;;;;;5067975;28;20113;-90
2023/06/23 06:40:38;;;;;;;8.63;7.75;;;22.10;99.90;;;;;;5068809;28;20119;-89
2023/06/23 06:43:04;;;;;;;8.60;6.93;;;21.90;99.90;;;;;;5038102;28;20186;-90
2023/06/23 06:45:29;;;;;;;10.05;7.90;;;21.20;99.90;;;;;;5041261;28;20037;-90
2023/06/23 06:47:57;;;;;;;9.32;7.63;;;20.90;99.90;;;;;;5051407;28;20056;-89
2023/06/23 06:50:23;;;;;;;10.07;7.57;;;20.30;99.90;;;;;;5049961;28;20109;-90
2023/06/23 06:52:49;;;;;;;8.45;7.30;;;20.00;99.90;;;;;;5054028;28;20050;-90
2023/06/23 06:55:19;;;;;;;7.88;7.18;;;19.70;99.90;;;;;;5054404;28;20131;-88
2023/06/23 06:57:49;;;;;;;7.82;7.00;;;19.50;99.90;;;;;;5052916;28;20429;-88
2023/06/23 07:00:19;;;;;;;7.10;6.40;;;19.50;99.90;;;;;;5053921;28;20053;-90
2023/06/23 07:02:46;;;;;;;7.20;5.90;;;19.40;99.90;;;;;;5055449;28;20044;-90
2023/06/23 07:05:12;;;;;;;6.68;5.97;;;19.50;99.90;;;;;;5054390;28;20044;-91
2023/06/23 07:07:37;;;;;;;7.05;6.32;;;19.50;99.90;;;;;;5054252;28;20688;-89
2023/06/23 07:10:04;;;;;;;7.15;6.07;;;19.60;99.90;;;;;;5054448;28;20041;-89
2023/06/23 07:12:33;;;;;;;9.00;6.22;;;19.70;99.90;;;;;;5053208;28;20044;-90
2023/06/23 07:14:59;;;;;;;8.55;6.43;;;20.00;99.90;;;;;;5053216;28;20079;-89
2023/06/23 07:17:24;;;;;;;8.00;6.13;;;19.90;99.90;;;;;;5070119;28;20072;-88
2023/06/23 07:19:50;;;;;;;7.18;6.25;;;19.80;99.90;;;;;;5052175;28;20107;-90
2023/06/23 07:22:17;;;;;;;6.47;5.72;;;19.90;99.90;;;;;;5054400;28;20044;-90
2023/06/23 07:24:43;;;;;;;10.13;5.70;;;20.20;99.90;;;;;;5053982;28;20085;-90
2023/06/23 07:27:09;;;;;;;6.93;5.45;;;20.10;99.90;;;;;;5053127;28;20079;-90
2023/06/23 07:29:35;;;;;;;5.63;4.80;;;19.80;99.90;;;;;;5071032;28;20043;-90
2023/06/23 07:32:01;;;;;;;6.35;5.50;;;20.20;99.90;;;;;;5054054;28;20115;-90
2023/06/23 07:34:28;;;;;;;6.30;5.10;;;20.30;99.90;;;;;;5053131;28;20047;-89
2023/06/23 07:36:55;;;;;;;5.70;5.20;;;20.30;99.90;;;;;;5053804;28;20080;-90
2023/06/23 07:39:22;;;;;;;5.57;5.00;;;20.50;99.90;;;;;;5054202;28;20492;-90
2023/06/23 07:41:47;;;;;;;6.30;5.25;;;20.50;99.90;;;;;;5053094;28;20151;-89
2023/06/23 07:44:13;;;;;;;7.72;5.63;;;20.80;99.90;;;;;;5070607;28;20170;-89
2023/06/23 07:46:39;;;;;;;5.85;5.25;;;20.50;99.90;;;;;;5066688;28;20040;-87
2023/06/23 07:49:04;;;;;;;5.82;5.32;;;20.60;99.90;;;;;;5066297;28;20644;-86
2023/06/23 07:51:30;;;;;;;6.60;5.78;;;20.80;99.90;;;;;;5066778;28;20109;-85
2023/06/23 07:53:56;;;;;;;7.07;5.45;;;20.90;99.90;;;;;;5066585;28;20044;-88
2023/06/23 07:56:21;;;;;;;6.38;5.30;;;21.30;99.90;;;;;;5049760;28;20512;-87
2023/06/23 07:58:47;;;;;;;5.53;4.97;;;21.30;99.90;;;;;;5063429;28;20048;-87
2023/06/23 08:01:13;;;;;;;7.18;4.25;;;21.40;99.90;;;;;;5057561;28;20136;-87
2023/06/23 08:03:39;;;;;;;6.40;4.53;;;21.40;99.90;;;;;;5047970;28;20067;-87
2023/06/23 08:06:04;;;;;;;6.38;4.75;;;21.60;99.90;;;;;;5059451;28;20041;-88
2023/06/23 08:08:32;;;;;;;6.43;4.72;;;21.60;99.90;;;;;;5065063;28;20083;-87
2023/06/23 08:10:58;;;;;;;7.32;5.00;;;21.80;99.90;;;;;;5039953;28;20202;-87
2023/06/23 08:13:24;;;;;;;4.93;4.38;;;22.00;99.90;;;;;;5060996;28;20604;-86
2023/06/23 08:15:49;;;;;;;7.05;5.13;;;22.10;99.90;;;;;;5056683;28;20060;-86
2023/06/23 08:18:15;;;;;;;4.72;4.32;;;22.30;99.90;;;;;;5062165;28;20095;-85
2023/06/23 08:20:40;;;;;;;4.63;4.20;;;22.50;99.90;;;;;;5065229;28;20381;-83
2023/06/23 08:23:06;;;;;;;7.07;4.88;;;22.20;99.90;;;;;;5064567;28;20040;-85
2023/06/23 08:25:32;;;;;;;5.22;4.38;;;22.60;99.90;;;;;;5065320;28;20132;-86
2023/06/23 08:27:58;;;;;;;5.25;4.43;;;22.70;99.90;;;;;;5065479;28;20569;-85
2023/06/23 08:30:29;;;;;;;5.47;4.63;;;22.80;99.90;;;;;;5067840;28;20037;-86
2023/06/23 08:32:55;;;;;;;5.43;4.18;;;22.80;99.90;;;;;;5070045;28;20040;-86
2023/06/23 08:35:21;;;;;;;4.13;3.72;;;22.70;99.90;;;;;;5066710;28;20063;-86
2023/06/23 08:37:47;;;;;;;3.83;3.40;;;23.10;99.90;;;;;;5049799;28;20044;-86
2023/06/23 08:40:14;;;;;;;4.10;3.70;;;23.10;99.90;;;;;;5049517;28;20095;-85
2023/06/23 08:42:40;;;;;;;3.83;3.42;;;22.90;99.90;;;;;;5048468;28;20049;-86
2023/06/23 08:45:07;;;;;;;3.88;3.50;;;23.00;99.90;;;;;;5049981;28;20041;-87
2023/06/23 08:47:39;;;;;;;5.80;3.53;;;23.20;99.90;;;;;;5068815;28;20053;-86
2023/06/23 08:50:06;;;;;;;;;;;23.30;99.90;;;;;;5069044;28;20460;-86
2023/06/23 08:52:31;;;;;;;3.58;3.28;;;23.20;96.60;;;;;;5049848;28;19947;-86
2023/06/23 08:54:57;;;;;;;3.50;3.17;;;23.40;99.90;;;;;;5062517;28;20048;-86
2023/06/23 08:57:23;;;;;;;4.10;3.28;;;23.60;99.90;;;;;;5067615;28;20048;-86
2023/06/23 08:59:49;;;;;;;3.72;3.00;;;23.60;99.90;;;;;;5067324;28;20047;-86
2023/06/23 09:02:15;;;;;;;3.50;3.20;;;23.90;99.90;;;;;;5067659;28;20049;-86
2023/06/23 09:04:41;;;;;;;3.67;3.38;;;23.90;99.90;;;;;;5066393;28;20484;-86
2023/06/23 09:07:06;;;;;;;4.80;3.30;;;24.00;99.70;;;;;;5067407;28;20076;-85
2023/06/23 09:09:32;;;;;;;4.03;3.20;;;24.00;99.70;;;;;;5050843;28;20083;-83
2023/06/23 09:11:59;;;;;;;3.33;3.03;;;24.00;98.60;;;;;;5072711;28;20070;-86
2023/06/23 09:14:32;;;;;;;3.10;2.90;;;24.00;97.00;;;;;;5075445;28;20083;-87
2023/06/23 09:16:58;;;;;;;4.07;2.85;;;24.00;93.70;;;;;;5077919;28;20063;-88
2023/06/23 09:19:27;;;;;;;3.40;3.10;;;23.80;95.30;;;;;;5075880;28;20406;-87
2023/06/23 09:21:54;;;;;;;3.50;3.15;;;24.00;95.50;;;;;;5057533;28;20072;-86
2023/06/23 09:24:21;;;;;;;4.43;3.45;;;24.00;93.90;;;;;;5077048;28;20059;-87
2023/06/23 09:26:52;;;;;;;3.92;3.53;;;24.10;93.60;;;;;;5073858;28;20052;-88
2023/06/23 09:29:20;;;;;;;5.53;3.40;;;24.10;94.10;;;;;;5072458;28;20078;-88
2023/06/23 09:31:48;;;;;;;4.25;3.63;;;24.00;94.30;;;;;;5072899;28;20049;-86
2023/06/23 09:34:34;;;;;;;4.22;3.58;;;23.90;93.70;;;;;;5062075;28;20041;-89
2023/06/23 09:37:11;;;;;;;3.72;3.08;;;24.10;92.80;;;;;;5064602;28;20118;-87
2023/06/23 09:39:39;;;;;;;4.43;3.28;;;24.20;92.70;;;;;;5063978;28;20048;-87
2023/06/23 09:42:09;;;;;;;4.55;2.88;;;24.50;93.90;;;;;;5052015;28;20113;-90
2023/06/23 09:44:36;;;;;;;4.85;3.10;;;24.30;92.70;;;;;;5045271;28;20075;-87
2023/06/23 09:47:03;;;;;;;3.08;2.83;;;24.30;92.50;;;;;;5044667;28;20048;-89
2023/06/23 09:49:40;;;;;;;4.97;3.15;;;24.20;92.30;;;;;;5056245;28;20040;-89
2023/06/23 09:52:08;;;;;;;3.65;3.33;;;24.00;90.20;;;;;;5066405;28;20063;-88
2023/06/23 09:54:36;;;;;;;9.73;8.95;;;24.20;91.90;;;;;;5040833;28;20504;-88
2023/06/23 09:57:12;;;;;;;4.15;3.50;;;24.50;91.20;;;;;;5050910;28;20080;-87
2023/06/23 09:59:39;;;;;;;4.03;3.25;;;24.60;91.10;;;;;;5064404;28;20052;-87
2023/06/23 10:02:07;;;;;;;3.80;3.45;;;24.70;91.40;;;;;;5061215;28;20044;-87
2023/06/23 10:04:32;;;;;;;4.57;3.20;;;24.70;91.70;;;;;;5065849;28;20050;-88
2023/06/23 10:07:16;;;;;;;4.60;3.58;;;24.90;91.60;;;;;;5058098;28;20123;-86
2023/06/23 10:09:49;;;;;;;2.97;2.70;;;24.30;91.20;;;;;;5056968;28;20063;-87
2023/06/23 10:12:15;;;;;;;3.97;2.85;;;24.50;89.90;;;;;;5061423;28;20039;-87
2023/06/23 10:14:41;;;;;;;4.22;2.80;;;24.90;90.20;;;;;;5051484;28;21081;-87
2023/06/23 10:17:07;;;;;;;2.92;2.45;;;24.50;87.30;;;;;;5030710;28;20133;-87
2023/06/23 10:19:33;;;;;;;4.30;2.72;;;24.70;87.30;;;;;;5060232;28;20404;-84
2023/06/23 10:21:58;;;;;;;2.60;2.20;;;25.00;86.40;;;;;;5066596;28;20040;-85
2023/06/23 10:24:24;;;;;;;3.17;2.60;;;25.30;85.30;;;;;;5050220;28;20076;-87
2023/06/23 10:26:53;;;;;;;3.58;3.00;;;24.70;84.40;;;;;;5050618;28;20497;-87
2023/06/23 10:29:20;;;;;;;3.38;2.75;;;24.80;84.50;;;;;;5050218;28;20052;-85
2023/06/23 10:31:47;;;;;;;2.97;2.67;;;25.00;83.40;;;;;;5068426;28;20056;-86
2023/06/23 10:34:13;;;;;;;3.50;3.08;;;25.00;82.60;;;;;;5064584;28;20098;-84
2023/06/23 10:36:41;;;;;;;3.13;2.83;;;24.90;82.30;;;;;;5056043;28;20044;-85
2023/06/23 10:39:08;;;;;;;3.13;2.83;;;24.70;81.10;;;;;;5049803;28;20041;-86
2023/06/23 10:41:34;;;;;;;4.10;2.85;;;24.90;81.10;;;;;;5066438;28;20047;-85
2023/06/23 10:44:02;;;;;;;3.28;2.67;;;24.80;81.90;;;;;;5066225;28;20048;-84
2023/06/23 10:46:29;;;;;;;3.33;2.55;;;25.00;78.80;;;;;;5067238;28;20454;-87
2023/06/23 10:48:55;;;;;;;4.50;2.55;;;25.00;82.50;;;;;;5066180;28;20070;-85
2023/06/23 10:51:23;;;;;;;3.08;2.85;;;24.90;83.10;;;;;;5050472;28;20117;-87
2023/06/23 10:54:00;;;;;;;3.38;2.83;;;25.10;83.90;;;;;;5067045;28;20037;-87
2023/06/23 10:56:34;;;;;;;4.00;3.28;;;25.10;80.80;;;;;;5067083;28;20442;-86
2023/06/23 10:59:02;;;;;;;3.55;3.00;;;25.10;83.50;;;;;;5049714;28;20758;-86
2023/06/23 11:01:28;;;;;;;3.00;2.75;;;24.90;85.00;;;;;;5066178;28;20045;-85
2023/06/23 11:03:57;;;;;;;5.93;3.30;;;25.00;84.90;;;;;;5066382;28;20052;-85
2023/06/23 11:06:35;;;;;;;4.07;3.08;;;24.70;83.40;;;;;;5049062;28;20123;-83
2023/06/23 11:09:02;;;;;;;3.88;2.90;;;24.70;84.70;;;;;;5065483;28;20127;-84
2023/06/23 11:11:34;;;;;;;3.00;2.70;;;24.90;86.50;;;;;;5066603;28;20043;-84
2023/06/23 11:14:00;;;;;;;3.58;3.28;;;25.20;83.20;;;;;;5066675;28;20048;-87
2023/06/23 11:16:27;;;;;;;6.13;3.10;;;25.30;85.00;;;;;;5045885;28;20047;-87
2023/06/23 11:18:57;;;;;;;3.40;3.10;;;25.70;84.50;;;;;;5046539;28;20052;-83
2023/06/23 11:21:37;;;;;;;3.30;3.00;;;25.80;83.30;;;;;;5046320;28;20540;-84
2023/06/23 11:24:19;;;;;;;3.20;2.75;;;25.90;80.60;;;;;;5056804;28;20420;-84
2023/06/23 11:27:00;;;;;;;4.70;2.88;;;25.80;80.30;;;;;;5064697;28;20045;-85
2023/06/23 11:29:25;;;;;;;2.72;2.50;;;25.80;79.40;;;;;;5066132;28;20127;-86
2023/06/23 11:32:10;;;;;;;3.05;2.50;;;26.20;79.00;;;;;;5066496;28;20568;-86
2023/06/23 11:34:57;;;;;;;2.83;2.30;;;25.80;82.40;;;;;;5065206;28;20044;-84
2023/06/23 11:37:30;;;;;;;3.03;2.50;;;25.70;76.00;;;;;;5065885;28;20117;-86
2023/06/23 11:39:57;;;;;;;3.05;2.40;;;25.70;78.00;;;;;;5066506;28;20041;-86
2023/06/23 11:42:23;;;;;;;2.38;2.17;;;25.70;77.80;;;;;;5062442;28;20467;-85
2023/06/23 11:44:48;;;;;;;4.30;2.40;;;25.70;76.70;;;;;;5046367;28;20148;-85
2023/06/23 11:47:15;;;;;;;2.92;2.60;;;25.80;76.90;;;;;;5047381;28;20203;-87
2023/06/23 11:49:41;;;;;;;2.75;2.55;;;25.80;75.30;;;;;;5048319;28;20059;-87
2023/06/23 11:52:07;;;;;;;3.38;2.25;;;26.10;75.10;;;;;;5066249;28;20048;-86
2023/06/23 11:54:35;;;;;;;2.58;2.38;;;25.90;73.30;;;;;;5066545;28;20040;-86
2023/06/23 11:57:06;;;;;;;2.40;2.20;;;25.80;71.20;;;;;;5049619;28;20051;-85
2023/06/23 11:59:36;;;;;;;3.38;2.40;;;25.70;71.60;;;;;;5065373;28;20132;-85
2023/06/23 12:02:02;;;;;;;4.95;2.72;;;25.80;73.30;;;;;;5065694;28;20041;-85
2023/06/23 12:04:29;;;;;;;3.25;2.40;;;25.90;72.60;;;;;;5049161;28;20174;-85
2023/06/23 12:06:57;;;;;;;2.92;2.20;;;25.80;70.70;;;;;;5051840;28;20040;-84
2023/06/23 12:09:23;;;;;;;3.58;2.20;;;26.00;69.30;;;;;;5068900;28;20542;-86
2023/06/23 12:11:48;;;;;;;2.42;2.22;;;26.00;67.40;;;;;;5069725;28;20052;-85
2023/06/23 12:14:14;;;;;;;3.03;2.70;;;26.00;66.70;;;;;;5070428;28;20112;-86
2023/06/23 12:16:39;;;;;;;3.25;2.20;;;25.80;65.60;;;;;;5069836;28;20040;-85
2023/06/23 12:19:05;;;;;;;2.80;2.58;;;26.10;65.50;;;;;;5069285;28;20091;-84
2023/06/23 12:21:32;;;;;;;3.47;2.70;;;26.10;65.20;;;;;;5070735;28;20037;-85
2023/06/23 12:23:59;;;;;;;4.85;2.60;;;26.10;64.10;;;;;;5068809;28;20052;-85
2023/06/23 12:26:24;;;;;;;3.30;3.00;;;26.00;63.90;;;;;;5069193;28;20044;-84
2023/06/23 12:28:50;;;;;;;3.50;2.95;;;25.80;64.20;;;;;;5068739;28;20411;-85
2023/06/23 12:31:28;;;;;;;2.90;2.60;;;25.70;64.10;;;;;;5068186;28;20468;-86
2023/06/23 12:33:55;;;;;;;8.20;3.45;;;25.80;62.20;;;;;;5068455;28;20043;-86
2023/06/23 12:36:25;;;;;;;2.90;2.60;;;25.70;63.00;;;;;;5068746;28;20557;-87
2023/06/23 12:38:57;;;;;;;2.90;2.60;;;25.70;62.60;;;;;;5051415;28;20044;-86
2023/06/23 12:41:26;;;;;;;2.95;2.70;;;25.70;61.60;;;;;;5068125;28;20384;-85
2023/06/23 12:43:59;;;;;;;3.00;2.70;;;25.70;61.80;;;;;;5067563;28;20044;-86
2023/06/23 12:46:26;;;;;;;2.80;2.60;;;25.70;62.30;;;;;;5065218;28;20048;-85
2023/06/23 12:48:54;;;;;;;2.80;2.60;;;25.90;62.50;;;;;;5064788;28;20950;-86